createdAt,value
2022-10-06T00:00:06.686Z,7.93
2022-10-06T00:03:11.088Z,9.55
2022-10-06T00:06:15.704Z,8.68
2022-10-06T00:09:18.674Z,9.20
2022-10-06T00:12:21.518Z,7.90
2022-10-06T00:15:27.829Z,9.13
2022-10-06T00:18:31.056Z,8.25
2022-10-06T00:21:34.458Z,8.57
2022-10-06T00:24:37.437Z,8.80
2022-10-06T00:27:42.526Z,7.93
2022-10-06T00:30:47.023Z,10.60
2022-10-06T00:33:50.380Z,7.68
2022-10-06T00:36:52.842Z,11.43
2022-10-06T00:39:55.925Z,9.30
2022-10-06T00:43:05.017Z,8.57
2022-10-06T00:46:16.997Z,9.37
2022-10-06T00:49:30.993Z,8.27
2022-10-06T00:52:33.985Z,8.25
2022-10-06T00:55:37.089Z,7.62
2022-10-06T00:58:40.115Z,8.40
2022-10-06T01:01:49.948Z,9.53
2022-10-06T01:04:58.530Z,10.80
2022-10-06T01:08:01.429Z,10.10
2022-10-06T01:11:04.389Z,9.57
2022-10-06T01:14:06.901Z,11.48
2022-10-06T01:17:19.784Z,9.77
2022-10-06T01:20:23.228Z,12.27
2022-10-06T01:23:26.448Z,11.55
2022-10-06T01:26:30.188Z,9.45
2022-10-06T01:29:33.953Z,13.95
2022-10-06T01:32:39.320Z,9.73
2022-10-06T01:35:43.147Z,10.27
2022-10-06T01:38:45.631Z,11.40
2022-10-06T01:41:48.794Z,9.68
2022-10-06T01:44:51.899Z,11.35
2022-10-06T01:47:54.959Z,12.70
2022-10-06T01:50:58.039Z,9.93
2022-10-06T01:54:00.850Z,11.23
2022-10-06T01:57:06.117Z,11.02
2022-10-06T02:00:10.769Z,11.60
2022-10-06T02:03:15.084Z,14.10
2022-10-06T02:06:18.145Z,11.43
2022-10-06T02:09:20.841Z,11.57
2022-10-06T02:12:24.455Z,10.63
2022-10-06T02:15:28.589Z,11.05
2022-10-06T02:18:33.837Z,12.23
2022-10-06T02:21:36.683Z,12.25
2022-10-06T02:24:39.318Z,13.85
2022-10-06T02:27:42.353Z,10.43
2022-10-06T02:30:46.099Z,10.93
2022-10-06T02:33:49.136Z,13.03
2022-10-06T02:36:52.077Z,11.20
2022-10-06T02:39:55.620Z,12.50
2022-10-06T02:42:58.635Z,13.52
2022-10-06T02:46:12.170Z,13.07
2022-10-06T02:49:16.190Z,12.07
2022-10-06T02:52:19.259Z,13.62
2022-10-06T02:55:21.980Z,12.82
2022-10-06T02:58:25.327Z,12.68
2022-10-06T03:01:29.279Z,13.98
2022-10-06T03:04:32.485Z,10.10
2022-10-06T03:07:35.052Z,11.85
2022-10-06T03:10:38.267Z,12.25
2022-10-06T03:13:41.616Z,12.82
2022-10-06T03:16:44.642Z,15.73
2022-10-06T03:19:47.831Z,15.73
2022-10-06T03:22:53.804Z,12.20
2022-10-06T03:25:57.687Z,12.88
2022-10-06T03:29:01.656Z,10.90
2022-10-06T03:32:04.916Z,13.80
2022-10-06T03:35:08.830Z,11.87
2022-10-06T03:38:11.819Z,14.43
2022-10-06T03:41:19.956Z,10.65
2022-10-06T03:44:23.502Z,12.73
2022-10-06T03:47:29.993Z,14.87
2022-10-06T03:50:33.556Z,13.57
2022-10-06T03:53:38.031Z,11.65
2022-10-06T03:56:42.172Z,15.80
2022-10-06T03:59:45.492Z,13.57
2022-10-06T04:02:49.791Z,14.48
2022-10-06T04:05:54.726Z,14.13
2022-10-06T04:08:58.248Z,13.18
2022-10-06T04:12:01.873Z,10.75
2022-10-06T04:15:04.934Z,13.73
2022-10-06T04:18:07.925Z,12.95
2022-10-06T04:21:11.975Z,11.47
2022-10-06T04:24:17.268Z,15.23
2022-10-06T04:27:28.905Z,13.48
2022-10-06T04:30:32.551Z,12.65
2022-10-06T04:33:35.254Z,15.18
2022-10-06T04:36:41.244Z,13.97
2022-10-06T04:39:44.629Z,12.48
2022-10-06T04:42:49.357Z,14.30
2022-10-06T04:45:59.539Z,16.27
2022-10-06T04:49:03.614Z,14.27
2022-10-06T04:52:06.770Z,14.00
2022-10-06T04:55:11.100Z,12.65
2022-10-06T04:58:13.862Z,14.87
2022-10-06T05:01:18.280Z,13.50
2022-10-06T05:04:21.349Z,14.18
2022-10-06T05:07:24.216Z,15.43
2022-10-06T05:10:28.575Z,11.73
2022-10-06T05:13:32.164Z,14.93
2022-10-06T05:16:38.093Z,13.93
2022-10-06T05:19:41.736Z,12.40
2022-10-06T05:22:44.405Z,13.37
2022-10-06T05:25:52.747Z,12.40
2022-10-06T05:28:56.277Z,15.07
2022-10-06T05:31:59.567Z,14.10
2022-10-06T05:35:03.304Z,16.83
2022-10-06T05:38:06.405Z,18.17
2022-10-06T05:41:14.484Z,16.62
2022-10-06T05:44:17.674Z,16.12
2022-10-06T05:47:20.450Z,16.52
2022-10-06T05:50:26.557Z,18.60
2022-10-06T05:53:30.463Z,20.03
2022-10-06T05:56:38.150Z,16.73
2022-10-06T05:59:41.735Z,16.65
2022-10-06T06:02:44.550Z,17.60
2022-10-06T06:05:48.105Z,14.30
2022-10-06T06:08:56.760Z,16.50
2022-10-06T06:12:00.210Z,15.73
2022-10-06T06:15:22.416Z,16.80
2022-10-06T06:18:32.145Z,13.55
2022-10-06T06:21:35.316Z,16.80
2022-10-06T06:24:38.666Z,15.87
2022-10-06T06:27:42.194Z,19.75
2022-10-06T06:30:45.253Z,18.27
2022-10-06T06:33:51.113Z,17.27
2022-10-06T06:36:55.931Z,22.15
2022-10-06T06:39:58.647Z,19.30
2022-10-06T06:43:01.599Z,18.27
2022-10-06T06:46:08.595Z,15.60
2022-10-06T06:49:20.711Z,16.55
2022-10-06T06:52:26.081Z,19.85
2022-10-06T06:55:29.369Z,15.83
2022-10-06T06:58:32.771Z,19.10
2022-10-06T07:01:37.067Z,24.90
2022-10-06T07:04:40.396Z,20.98
2022-10-06T07:07:44.479Z,21.15
2022-10-06T07:10:48.623Z,21.00
2022-10-06T07:13:53.720Z,21.92
2022-10-06T07:17:15.024Z,19.58
2022-10-06T07:20:36.778Z,21.37
2022-10-06T07:23:58.132Z,23.17
2022-10-06T07:27:02.063Z,21.87
2022-10-06T07:30:05.197Z,20.33
2022-10-06T07:33:09.243Z,24.00
2022-10-06T07:36:12.848Z,21.50
2022-10-06T07:39:15.846Z,22.25
2022-10-06T07:42:18.749Z,23.53
2022-10-06T07:45:39.083Z,16.73
2022-10-06T07:48:43.198Z,22.35
2022-10-06T07:51:50.107Z,22.40
2022-10-06T07:54:53.521Z,21.37
2022-10-06T07:57:56.820Z,21.67
2022-10-06T08:01:10.164Z,19.08
2022-10-06T08:04:13.776Z,20.27
2022-10-06T08:07:16.297Z,21.23
2022-10-06T08:10:20.827Z,19.87
2022-10-06T08:13:24.019Z,16.50
2022-10-06T08:16:31.008Z,17.08
2022-10-06T08:19:33.726Z,19.17
2022-10-06T08:22:38.910Z,20.15
2022-10-06T08:25:44.689Z,16.48
2022-10-06T08:28:50.157Z,14.13
2022-10-06T08:31:52.715Z,12.73
2022-10-06T08:34:56.181Z,16.33
2022-10-06T08:37:59.237Z,16.37
2022-10-06T08:41:02.720Z,16.30
2022-10-06T08:44:19.233Z,16.80
2022-10-06T08:47:23.495Z,13.32
2022-10-06T08:50:29.883Z,17.10
2022-10-06T08:53:46.990Z,15.80
2022-10-06T08:57:03.569Z,15.88
2022-10-06T09:00:18.165Z,16.07
2022-10-06T09:03:29.449Z,19.70
2022-10-06T09:06:41.339Z,16.25
2022-10-06T09:10:02.123Z,17.37
2022-10-06T09:13:21.612Z,17.62
2022-10-06T09:16:30.185Z,14.30
2022-10-06T09:19:46.280Z,13.07
2022-10-06T09:22:50.770Z,13.60
2022-10-06T09:25:55.164Z,17.23
2022-10-06T09:28:58.456Z,15.07
2022-10-06T09:32:02.980Z,15.77
2022-10-06T09:35:23.043Z,14.60
2022-10-06T09:38:45.735Z,13.02
2022-10-06T09:41:48.652Z,15.57
2022-10-06T09:44:51.532Z,14.45
2022-10-06T09:47:54.005Z,16.00
2022-10-06T09:51:17.248Z,12.05
2022-10-06T09:54:19.634Z,14.70
2022-10-06T09:57:28.302Z,14.20
2022-10-06T10:00:36.175Z,11.15
2022-10-06T10:07:27.147Z,10.55
2022-10-06T10:10:30.336Z,10.90
2022-10-06T10:13:42.493Z,12.18
2022-10-06T10:16:48.627Z,8.70
2022-10-06T10:19:55.692Z,11.10
2022-10-06T10:23:01.677Z,9.48
2022-10-06T10:26:27.258Z,9.80
2022-10-06T10:29:32.998Z,11.52
2022-10-06T10:32:53.943Z,10.73
2022-10-06T10:35:57.421Z,10.77
2022-10-06T10:39:01.430Z,9.63
2022-10-06T10:42:14.575Z,10.35
2022-10-06T10:45:24.832Z,9.52
2022-10-06T10:48:46.256Z,12.05
2022-10-06T10:52:20.479Z,11.27
2022-10-06T10:55:37.105Z,12.93
2022-10-06T10:58:42.421Z,9.20
2022-10-06T11:02:13.774Z,10.45
2022-10-06T11:05:56.401Z,11.77
2022-10-06T11:09:06.863Z,9.60
2022-10-06T11:12:34.036Z,10.93
2022-10-06T11:15:40.052Z,7.30
2022-10-06T11:19:04.689Z,6.30
2022-10-06T11:22:29.879Z,7.93
2022-10-06T11:25:48.819Z,11.97
2022-10-06T11:29:17.043Z,7.93
2022-10-06T11:33:01.514Z,10.50
2022-10-06T11:36:08.761Z,6.87
2022-10-06T11:39:29.034Z,8.88
2022-10-06T11:42:41.290Z,9.60
2022-10-06T11:46:02.059Z,10.27
2022-10-06T11:49:29.618Z,9.68
2022-10-06T11:52:32.000Z,12.70
2022-10-06T11:55:34.919Z,10.07
2022-10-06T11:58:55.667Z,8.40
2022-10-06T12:01:59.231Z,6.40
2022-10-06T12:08:38.302Z,12.20
2022-10-06T12:11:42.437Z,10.18
2022-10-06T12:18:38.659Z,8.25
2022-10-06T12:21:50.677Z,8.70
2022-10-06T12:25:14.602Z,7.15
2022-10-06T12:28:23.209Z,7.28
2022-10-06T12:31:46.239Z,7.60
2022-10-06T12:34:58.590Z,8.15
2022-10-06T12:38:05.440Z,8.32
2022-10-06T12:41:12.155Z,13.60
2022-10-06T12:44:36.785Z,8.93
2022-10-06T12:47:42.239Z,9.23
2022-10-06T12:50:45.955Z,10.98
2022-10-06T12:54:10.189Z,10.05
2022-10-06T12:57:18.393Z,10.65
2022-10-06T13:00:31.590Z,13.77
2022-10-06T13:03:34.943Z,10.30
2022-10-06T13:06:37.401Z,9.52
2022-10-06T13:09:40.177Z,8.77
2022-10-06T13:12:47.472Z,10.57
2022-10-06T13:15:52.136Z,8.32
2022-10-06T13:18:57.047Z,11.70
2022-10-06T13:22:02.878Z,14.13
2022-10-06T13:25:05.956Z,10.45
2022-10-06T13:28:39.727Z,7.18
2022-10-06T13:31:51.815Z,9.77
2022-10-06T13:34:56.136Z,10.23
2022-10-06T13:38:02.514Z,10.30
2022-10-06T13:41:11.414Z,9.07
2022-10-06T13:44:18.797Z,11.80
2022-10-06T13:47:24.562Z,13.00
2022-10-06T13:50:27.343Z,7.93
2022-10-06T13:53:31.995Z,10.57
2022-10-06T13:56:39.952Z,10.77
2022-10-06T13:59:43.154Z,12.02
2022-10-06T14:02:51.368Z,8.55
2022-10-06T14:06:17.344Z,11.17
2022-10-06T14:09:26.358Z,14.32
2022-10-06T14:12:29.197Z,10.95
2022-10-06T14:15:57.809Z,10.18
2022-10-06T14:19:05.285Z,10.23
2022-10-06T14:22:40.493Z,8.80
2022-10-06T14:25:43.257Z,10.55
2022-10-06T14:28:48.674Z,9.82
2022-10-06T14:31:51.444Z,9.25
2022-10-06T14:34:54.104Z,11.45
2022-10-06T14:37:56.828Z,15.37
2022-10-06T14:41:02.962Z,9.27
2022-10-06T14:44:08.898Z,12.00
2022-10-06T14:47:11.494Z,10.25
2022-10-06T14:50:14.517Z,11.98
2022-10-06T14:53:17.618Z,10.63
2022-10-06T14:56:22.818Z,10.43
2022-10-06T14:59:25.738Z,15.77
2022-10-06T15:02:29.302Z,12.25
2022-10-06T15:05:31.932Z,11.85
2022-10-06T15:08:34.896Z,9.60
2022-10-06T15:11:40.906Z,10.75
2022-10-06T15:14:43.963Z,16.15
2022-10-06T15:17:46.642Z,9.68
2022-10-06T15:20:50.191Z,10.55
2022-10-06T15:23:57.667Z,10.10
2022-10-06T15:27:23.920Z,13.02
2022-10-06T15:30:27.519Z,10.23
2022-10-06T15:33:30.581Z,13.80
2022-10-06T15:36:36.319Z,10.30
2022-10-06T15:39:39.143Z,13.17
2022-10-06T15:42:41.795Z,9.30
2022-10-06T15:45:53.822Z,10.10
2022-10-06T15:49:02.776Z,10.35
2022-10-06T15:52:06.158Z,14.15
2022-10-06T15:55:10.595Z,10.30
2022-10-06T15:58:13.374Z,11.40
2022-10-06T16:01:25.346Z,7.45
2022-10-06T16:04:34.847Z,9.90
2022-10-06T16:07:37.446Z,13.70
2022-10-06T16:10:40.367Z,14.13
2022-10-06T16:13:42.874Z,11.52
2022-10-06T16:16:46.999Z,9.40
2022-10-06T16:19:49.692Z,10.85
2022-10-06T16:22:52.485Z,9.82
2022-10-06T16:25:55.048Z,9.57
2022-10-06T16:28:57.922Z,7.68
2022-10-06T16:32:00.443Z,11.07
2022-10-06T16:35:03.323Z,11.07
2022-10-06T16:38:05.918Z,13.95
2022-10-06T16:41:09.333Z,12.03
2022-10-06T16:44:11.880Z,12.32
2022-10-06T16:47:14.835Z,16.00
2022-10-06T16:50:18.045Z,14.65
2022-10-06T16:53:20.929Z,13.73
2022-10-06T16:56:27.089Z,11.97
2022-10-06T16:59:30.425Z,12.88
2022-10-06T17:02:34.062Z,11.73
2022-10-06T17:05:36.958Z,19.02
2022-10-06T17:08:39.812Z,18.27
2022-10-06T17:11:45.106Z,14.37
2022-10-06T17:14:47.593Z,11.18
2022-10-06T17:17:50.474Z,10.05
2022-10-06T17:20:57.854Z,9.80
2022-10-06T17:24:02.422Z,12.37
2022-10-06T17:27:05.107Z,14.87
2022-10-06T17:30:08.800Z,9.85
2022-10-06T17:33:11.592Z,11.07
2022-10-06T17:36:17.129Z,8.48
2022-10-06T17:39:21.654Z,12.00
2022-10-06T17:42:24.501Z,10.17
2022-10-06T17:45:27.455Z,11.07
2022-10-06T17:48:30.490Z,11.60
2022-10-06T17:51:33.862Z,9.63
2022-10-06T17:54:36.722Z,10.68
2022-10-06T17:57:40.003Z,7.57
2022-10-06T18:00:43.777Z,10.80
2022-10-06T18:03:47.644Z,12.88
2022-10-06T18:06:52.959Z,10.63
2022-10-06T18:10:14.203Z,11.77
2022-10-06T18:13:16.704Z,9.37
2022-10-06T18:16:24.252Z,10.65
2022-10-06T18:19:32.464Z,10.80
2022-10-06T18:22:35.252Z,8.23
2022-10-06T18:25:37.778Z,13.52
2022-10-06T18:28:40.647Z,9.90
2022-10-06T18:31:44.030Z,9.90
2022-10-06T18:38:09.425Z,7.57
2022-10-06T18:41:15.225Z,9.48
2022-10-06T18:44:37.676Z,10.43
2022-10-06T18:47:59.327Z,11.15
2022-10-06T18:51:02.997Z,12.63
2022-10-06T18:54:09.188Z,8.57
2022-10-06T18:57:13.217Z,8.73
2022-10-06T19:00:17.478Z,7.67
2022-10-06T19:03:20.015Z,9.73
2022-10-06T19:06:30.320Z,8.57
2022-10-06T19:09:32.839Z,12.20
2022-10-06T19:12:36.014Z,8.15
2022-10-06T19:15:39.035Z,6.97
2022-10-06T19:18:42.041Z,7.45
2022-10-06T19:21:48.994Z,7.32
2022-10-06T19:24:52.369Z,7.28
2022-10-06T19:27:55.049Z,7.35
2022-10-06T19:31:00.287Z,8.00
2022-10-06T19:34:04.645Z,11.15
2022-10-06T19:37:07.720Z,8.77
2022-10-06T19:40:11.486Z,11.27
2022-10-06T19:43:15.328Z,9.68
2022-10-06T19:46:19.078Z,7.87
2022-10-06T19:49:23.523Z,8.13
2022-10-06T19:52:26.255Z,12.45
2022-10-06T19:55:29.527Z,11.63
2022-10-06T19:58:33.385Z,6.00
2022-10-06T20:01:36.312Z,9.70
2022-10-06T20:04:39.977Z,10.27
2022-10-06T20:07:44.310Z,9.35
2022-10-06T20:10:47.373Z,8.88
2022-10-06T20:13:50.893Z,8.88
2022-10-06T20:16:54.872Z,6.93
2022-10-06T20:19:58.097Z,8.90
2022-10-06T20:23:01.201Z,8.18
2022-10-06T20:26:14.554Z,11.48
2022-10-06T20:29:23.679Z,9.70
2022-10-06T20:32:26.415Z,10.33
2022-10-06T20:35:29.327Z,12.02
2022-10-06T20:38:52.304Z,8.32
2022-10-06T20:41:56.215Z,9.30
2022-10-06T20:44:58.706Z,10.35
2022-10-06T20:48:02.070Z,8.50
2022-10-06T20:51:14.847Z,7.57
2022-10-06T20:54:30.930Z,10.00
2022-10-06T20:57:34.019Z,12.32
2022-10-06T21:00:36.976Z,9.98
2022-10-06T21:03:44.503Z,8.33
2022-10-06T21:06:47.957Z,11.15
2022-10-06T21:09:52.330Z,10.13
2022-10-06T21:12:55.899Z,11.07
2022-10-06T21:15:59.901Z,9.15
2022-10-06T21:19:04.391Z,10.37
2022-10-06T21:22:07.052Z,11.73
2022-10-06T21:25:10.104Z,10.27
2022-10-06T21:28:14.287Z,12.13
2022-10-06T21:31:18.852Z,10.23
2022-10-06T21:34:21.513Z,10.77
2022-10-06T21:37:24.363Z,9.45
2022-10-06T21:40:27.037Z,10.95
2022-10-06T21:43:29.912Z,10.60
2022-10-06T21:46:37.967Z,10.05
2022-10-06T21:49:40.839Z,12.00
2022-10-06T21:52:43.293Z,12.85
2022-10-06T21:55:46.717Z,12.60
2022-10-06T21:58:51.504Z,13.20
2022-10-06T22:01:54.440Z,11.35
2022-10-06T22:04:57.499Z,11.90
2022-10-06T22:08:00.206Z,11.10
2022-10-06T22:11:07.296Z,10.23
2022-10-06T22:14:12.188Z,12.98
2022-10-06T22:17:15.116Z,13.90
2022-10-06T22:20:17.638Z,14.53
2022-10-06T22:23:20.511Z,12.00
2022-10-06T22:26:24.859Z,13.80
2022-10-06T22:29:27.626Z,14.00
2022-10-06T22:32:31.540Z,14.02
2022-10-06T22:35:34.557Z,12.80
2022-10-06T22:38:37.032Z,12.60
2022-10-06T22:41:39.923Z,14.32
2022-10-06T22:44:42.372Z,12.65
2022-10-06T22:47:45.577Z,14.73
2022-10-06T22:50:49.345Z,17.30
2022-10-06T22:53:58.465Z,13.73
2022-10-06T22:57:01.398Z,14.38
2022-10-06T23:00:04.750Z,14.43
2022-10-06T23:03:07.887Z,12.88
2022-10-06T23:06:14.146Z,16.87
2022-10-06T23:09:16.906Z,15.32
2022-10-06T23:12:19.790Z,17.77
2022-10-06T23:15:22.477Z,12.80
2022-10-06T23:18:25.578Z,15.63
2022-10-06T23:21:28.201Z,15.90
2022-10-06T23:24:31.052Z,16.75
2022-10-06T23:27:34.498Z,15.82
2022-10-06T23:30:39.331Z,16.27
2022-10-06T23:33:42.058Z,15.48
2022-10-06T23:36:45.085Z,17.77
2022-10-06T23:39:47.685Z,15.90
2022-10-06T23:42:50.532Z,16.02
2022-10-06T23:45:53.065Z,14.18
2022-10-06T23:48:56.026Z,15.75
2022-10-06T23:51:58.625Z,15.17
2022-10-06T23:55:01.433Z,24.50
2022-10-06T23:58:03.935Z,17.85
